KDGW/DGW METAR and TAF weather

Enter ICAO airport designator
Station Type Date Time Source
KDGW METAR 2022/01/26 08:53 UTC NOAA

KDGW 260853Z AUTO 21007KT 10SM CLR M11/M16 A3000 RMK AO2 SLP206 T11061156 58029


Station Type Date Time Source
KDGW Decoded METAR 2022/01/26 08:53 UTC NOAA

DOUGLAS CONVERSE COUNTY, WY, United States (KDGW) 42-48N 105-23W 1499M
Jan 26, 2022 - 03:53 AM EST / 2022.01.26 0853 UTC
Wind: from the SSW (210 degrees) at 8 MPH (7 KT):0
Visibility: 10 mile(s):0
Sky conditions: clear
Temperature: 12.9 F (-10.6 C)
Windchill: 1 F (-17 C):1
Dew Point: 3.9 F (-15.6 C)
Relative Humidity: 66%
Pressure (altimeter): 30 in. Hg (1015 hPa)
Pressure tendency: 0.09 inches (2.9 hPa) lower than three hours ago
ob: KDGW 260853Z AUTO 21007KT 10SM CLR M11/M16 A3000 RMK AO2 SLP206 T11061156 58029
cycle: 9

Station Type Date Time Source
KDGW TAF UTC NOAA

Error!

Example: see airport list